createdAt,value
2022-12-28T00:01:18.555Z,100242.03
2022-12-28T00:03:48.212Z,100226.75
2022-12-28T00:06:16.505Z,100217.38
2022-12-28T00:08:44.093Z,100220.16
2022-12-28T00:11:20.413Z,100212.63
2022-12-28T00:13:54.644Z,100204.47
2022-12-28T00:16:26.598Z,100183.72
2022-12-28T00:18:55.953Z,100181.63
2022-12-28T00:21:23.539Z,100185.22
2022-12-28T00:23:52.163Z,100174.09
2022-12-28T00:26:20.568Z,100163.63
2022-12-28T00:28:48.552Z,100172.22
2022-12-28T00:31:16.688Z,100173.38
2022-12-28T00:33:44.744Z,100159.75
2022-12-28T00:36:15.513Z,100159.41
2022-12-28T00:38:43.525Z,100153.50
2022-12-28T00:41:11.965Z,100144.28
2022-12-28T00:43:39.709Z,100135.59
2022-12-28T00:46:07.302Z,100123.28
2022-12-28T00:48:35.484Z,100128.56
2022-12-28T00:51:03.904Z,100120.63
2022-12-28T00:53:32.743Z,100115.94
2022-12-28T00:56:07.939Z,100116.34
2022-12-28T00:58:35.689Z,100106.53
2022-12-28T01:01:03.475Z,100096.38
2022-12-28T01:03:31.726Z,100087.94
2022-12-28T01:05:59.416Z,100086.41
2022-12-28T01:08:26.896Z,100087.34
2022-12-28T01:10:55.964Z,100076.81
2022-12-28T01:13:23.458Z,100079.88
2022-12-28T01:15:50.958Z,100071.97
2022-12-28T01:18:20.284Z,100071.28
2022-12-28T01:20:47.759Z,100076.69
2022-12-28T01:23:16.624Z,100082.66
2022-12-28T01:25:44.159Z,100082.25
2022-12-28T01:28:12.945Z,100068.34
2022-12-28T01:30:40.416Z,100070.56
2022-12-28T01:33:07.866Z,100073.78
2022-12-28T01:35:35.795Z,100073.09
2022-12-28T01:38:03.304Z,100065.03
2022-12-28T01:40:30.809Z,100055.88
2022-12-28T01:42:58.309Z,100056.25
2022-12-28T01:45:28.740Z,100048.47
2022-12-28T01:47:57.292Z,100046.56
2022-12-28T01:50:26.594Z,100042.06
2022-12-28T01:52:57.123Z,100045.53
2022-12-28T01:55:27.744Z,100034.59
2022-12-28T01:57:57.462Z,100034.41
2022-12-28T02:00:26.757Z,100025.09
2022-12-28T02:02:57.981Z,100024.53
2022-12-28T02:05:28.423Z,100021.50
2022-12-28T02:07:59.671Z,100006.69
2022-12-28T02:10:41.399Z,100013.19
2022-12-28T02:13:12.638Z,100000.09
2022-12-28T02:15:40.237Z,100013.28
2022-12-28T02:18:09.359Z,100003.00
2022-12-28T02:20:44.527Z,99998.81
2022-12-28T02:23:32.298Z,99991.75
2022-12-28T02:26:28.064Z,99993.25
2022-12-28T02:29:10.210Z,99982.59
2022-12-28T02:31:43.033Z,99971.63
2022-12-28T02:34:17.562Z,99964.97
2022-12-28T02:36:48.478Z,99960.25
2022-12-28T02:39:20.218Z,99963.31
2022-12-28T02:41:48.952Z,99960.66
2022-12-28T02:44:38.993Z,99955.25
2022-12-28T02:47:23.997Z,99944.03
2022-12-28T02:50:09.741Z,99939.84
2022-12-28T02:53:04.132Z,99936.09
2022-12-28T02:55:57.751Z,99930.69
2022-12-28T02:58:37.291Z,99923.06
2022-12-28T03:01:14.701Z,99927.69
2022-12-28T03:03:48.292Z,99905.66
2022-12-28T03:06:37.618Z,99911.78
2022-12-28T03:09:12.331Z,99901.78
2022-12-28T03:11:44.714Z,99895.56
2022-12-28T03:14:21.138Z,99890.56
2022-12-28T03:17:11.361Z,99864.47
2022-12-28T03:20:02.308Z,99860.69
2022-12-28T03:22:49.070Z,99851.75
2022-12-28T03:25:38.272Z,99838.84
2022-12-28T03:28:25.351Z,99835.16
2022-12-28T03:31:07.084Z,99828.97
2022-12-28T03:33:41.918Z,99810.72
2022-12-28T03:36:11.833Z,99805.28
2022-12-28T03:38:49.547Z,99804.03
2022-12-28T03:41:25.126Z,99806.91
2022-12-28T03:43:55.665Z,99801.13
2022-12-28T03:46:25.864Z,99799.31
2022-12-28T03:48:55.153Z,99775.44
2022-12-28T03:51:24.010Z,99780.06
2022-12-28T03:53:53.022Z,99774.06
2022-12-28T03:56:24.560Z,99772.22
2022-12-28T03:58:54.918Z,99753.91
2022-12-28T04:01:25.409Z,99769.09
2022-12-28T04:03:53.152Z,99749.81
2022-12-28T04:06:22.076Z,99752.94
2022-12-28T04:08:50.373Z,99748.09
2022-12-28T04:11:17.960Z,99759.72
2022-12-28T04:13:49.998Z,99751.31
2022-12-28T04:16:19.186Z,99755.03
2022-12-28T04:18:47.281Z,99747.03
2022-12-28T04:21:15.867Z,99751.97
2022-12-28T04:23:54.073Z,99749.50
2022-12-28T04:26:23.063Z,99744.91
2022-12-28T04:28:53.394Z,99738.25
2022-12-28T04:31:32.755Z,99736.06
2022-12-28T04:34:07.161Z,99717.47
2022-12-28T04:36:39.317Z,99715.00
2022-12-28T04:39:12.849Z,99714.22
2022-12-28T04:41:41.023Z,99718.09
2022-12-28T04:44:08.484Z,99709.00
2022-12-28T04:46:35.974Z,99702.03
2022-12-28T04:49:03.574Z,99697.09
2022-12-28T04:51:31.902Z,99690.53
2022-12-28T04:53:59.556Z,99689.41
2022-12-28T04:56:29.002Z,99690.78
2022-12-28T04:58:57.396Z,99689.28
2022-12-28T05:01:25.145Z,99686.22
2022-12-28T05:03:56.559Z,99675.66
2022-12-28T05:06:27.538Z,99689.50
2022-12-28T05:08:56.278Z,99675.28
2022-12-28T05:11:25.597Z,99690.66
2022-12-28T05:13:54.620Z,99685.69
2022-12-28T05:16:24.079Z,99689.19
2022-12-28T05:18:51.827Z,99684.47
2022-12-28T05:21:21.007Z,99672.78
2022-12-28T05:23:49.631Z,99670.63
2022-12-28T05:26:20.017Z,99683.22
2022-12-28T05:28:48.123Z,99676.84
2022-12-28T05:31:19.212Z,99674.50
2022-12-28T07:48:21.429Z,99619.19
2022-12-28T07:57:05.399Z,99599.31
2022-12-28T07:59:34.964Z,99589.59
2022-12-28T08:05:03.149Z,99598.88
2022-12-28T08:10:34.636Z,99596.22
2022-12-28T09:10:24.274Z,99616.44
2022-12-28T09:54:22.898Z,99626.47
2022-12-28T10:09:05.542Z,99595.38
2022-12-28T10:11:38.214Z,99607.59
2022-12-28T10:14:27.194Z,99595.03
2022-12-28T10:19:59.595Z,99594.88
2022-12-28T10:38:14.449Z,99581.09
2022-12-28T12:01:57.935Z,99485.53
2022-12-28T12:04:45.189Z,99489.56
2022-12-28T12:10:27.988Z,99475.34
2022-12-28T12:16:04.168Z,99479.72
2022-12-28T12:18:41.320Z,99459.56
2022-12-28T12:21:15.550Z,99469.25
2022-12-28T12:23:47.285Z,99477.50
2022-12-28T12:26:20.857Z,99473.22
2022-12-28T12:28:50.236Z,99454.13
2022-12-28T12:31:26.077Z,99461.72
2022-12-28T12:33:59.501Z,99465.97
2022-12-28T12:36:37.988Z,99460.72
2022-12-28T12:39:19.095Z,99442.91
2022-12-28T12:41:56.113Z,99455.31
2022-12-28T12:44:34.253Z,99426.66
2022-12-28T12:47:19.370Z,99454.97
2022-12-28T12:50:18.670Z,99450.72
2022-12-28T12:53:00.966Z,99447.84
2022-12-28T12:55:41.384Z,99428.88
2022-12-28T12:58:19.514Z,99432.69
2022-12-28T13:00:53.140Z,99424.06
2022-12-28T13:03:28.443Z,99437.31
2022-12-28T13:05:58.828Z,99429.66
2022-12-28T13:08:27.844Z,99432.28
2022-12-28T13:10:56.156Z,99406.00
2022-12-28T13:13:30.221Z,99425.72
2022-12-28T13:16:02.967Z,99423.41
2022-12-28T13:18:46.456Z,99413.25
2022-12-28T13:21:20.472Z,99435.41
2022-12-28T13:23:48.533Z,99427.72
2022-12-28T13:26:17.276Z,99419.16
2022-12-28T13:28:50.965Z,99424.78
2022-12-28T13:31:20.228Z,99399.69
2022-12-28T13:33:58.444Z,99407.66
2022-12-28T13:36:27.768Z,99424.25
2022-12-28T13:39:09.717Z,99417.63
2022-12-28T13:41:38.408Z,99394.28
2022-12-28T13:44:17.275Z,99401.06
2022-12-28T13:46:47.970Z,99399.50
2022-12-28T13:49:15.556Z,99386.88
2022-12-28T13:51:49.739Z,99418.44
2022-12-28T13:54:20.574Z,99399.66
2022-12-28T13:56:48.125Z,99396.25
2022-12-28T13:59:18.068Z,99405.00
2022-12-28T14:01:49.611Z,99384.50
2022-12-28T14:07:13.564Z,99409.31
2022-12-28T14:09:41.232Z,99403.38
2022-12-28T14:12:09.108Z,99408.31
2022-12-28T14:14:36.763Z,99411.06
2022-12-28T14:17:04.448Z,99414.84
2022-12-28T14:19:32.072Z,99391.66
2022-12-28T14:21:59.620Z,99400.03
2022-12-28T14:24:28.471Z,99392.59
2022-12-28T14:26:58.553Z,99405.91
2022-12-28T14:56:44.718Z,99364.63
2022-12-28T15:17:44.280Z,99319.94
2022-12-28T15:20:14.452Z,99320.84
2022-12-28T15:22:42.467Z,99330.44
2022-12-28T15:25:11.480Z,99308.47
2022-12-28T15:27:39.948Z,99307.56
2022-12-28T15:30:11.927Z,99312.34
2022-12-28T15:32:42.348Z,99314.22
2022-12-28T15:35:10.362Z,99306.72
2022-12-28T15:37:39.892Z,99297.31
2022-12-28T15:40:08.899Z,99297.66
2022-12-28T15:42:40.286Z,99298.75
2022-12-28T15:45:12.734Z,99294.91
2022-12-28T15:47:41.447Z,99292.97
2022-12-28T15:50:10.524Z,99288.78
2022-12-28T15:52:39.756Z,99281.75
2022-12-28T15:55:07.982Z,99278.69
2022-12-28T15:57:35.577Z,99267.22
2022-12-28T16:00:03.961Z,99284.94
2022-12-28T16:02:32.530Z,99279.44
2022-12-28T16:05:00.303Z,99274.34
2022-12-28T16:07:28.188Z,99275.72
2022-12-28T16:09:57.172Z,99269.50
2022-12-28T16:12:24.845Z,99268.88
2022-12-28T16:14:52.661Z,99276.91
2022-12-28T16:17:20.469Z,99262.13
2022-12-28T16:19:48.029Z,99258.38
2022-12-28T16:22:15.680Z,99259.78
2022-12-28T16:24:43.409Z,99242.69
2022-12-28T16:27:12.284Z,99254.13
2022-12-28T16:29:40.052Z,99264.59
2022-12-28T16:32:07.719Z,99254.16
2022-12-28T16:34:35.407Z,99229.03
2022-12-28T16:37:03.031Z,99231.97
2022-12-28T16:39:31.090Z,99236.56
2022-12-28T16:41:59.388Z,99232.34
2022-12-28T16:44:29.330Z,99215.59
2022-12-28T16:46:58.204Z,99229.59
2022-12-28T16:49:25.955Z,99232.44
2022-12-28T16:51:53.502Z,99209.78
2022-12-28T16:54:23.268Z,99217.53
2022-12-28T16:56:51.786Z,99180.78
2022-12-28T16:59:21.169Z,99191.94
2022-12-28T17:01:50.317Z,99194.59
2022-12-28T17:04:17.895Z,99188.28
2022-12-28T17:06:46.471Z,99179.22
2022-12-28T17:09:14.728Z,99174.22
2022-12-28T17:11:42.550Z,99186.44
2022-12-28T17:14:13.149Z,99178.22
2022-12-28T17:16:40.819Z,99171.19
2022-12-28T17:19:09.686Z,99167.88
2022-12-28T17:21:37.199Z,99177.41
2022-12-28T17:24:05.599Z,99160.56
2022-12-28T17:26:33.149Z,99162.59
2022-12-28T17:29:00.885Z,99152.63
2022-12-28T17:31:28.711Z,99155.84
2022-12-28T17:33:58.540Z,99130.63
2022-12-28T17:36:27.841Z,99143.75
2022-12-28T17:38:55.373Z,99149.53
2022-12-28T17:41:24.411Z,99140.38
2022-12-28T17:43:53.929Z,99134.88
2022-12-28T17:46:21.825Z,99141.84
2022-12-28T17:48:49.535Z,99125.19
2022-12-28T17:51:17.141Z,99127.00
2022-12-28T17:53:46.023Z,99136.69
2022-12-28T17:56:15.615Z,99121.97
2022-12-28T17:58:44.599Z,99114.09
2022-12-28T18:01:13.240Z,99102.41
2022-12-28T18:03:41.373Z,99101.13
2022-12-28T18:06:09.045Z,99095.63
2022-12-28T18:08:36.821Z,99082.91
2022-12-28T18:11:08.442Z,99092.88
2022-12-28T18:13:36.126Z,99092.69
2022-12-28T18:17:40.921Z,99083.53
2022-12-28T18:20:09.827Z,99068.94
2022-12-28T18:22:37.338Z,99061.38
2022-12-28T18:26:47.688Z,99050.63
2022-12-28T18:29:15.194Z,99066.47
2022-12-28T18:31:42.688Z,99051.31
2022-12-28T18:34:10.195Z,99044.56
2022-12-28T18:36:37.647Z,99046.59
2022-12-28T18:39:05.339Z,99049.19
2022-12-28T18:41:34.373Z,99053.66
2022-12-28T18:44:05.010Z,99058.16
2022-12-28T18:46:32.612Z,99047.03
2022-12-28T18:49:01.550Z,99045.19
2022-12-28T18:51:29.113Z,99048.97
2022-12-28T18:53:56.612Z,99043.81
2022-12-28T18:56:24.171Z,99039.31
2022-12-28T18:58:53.327Z,99026.34
2022-12-28T19:06:37.515Z,99041.22
2022-12-28T19:09:06.207Z,99019.59
2022-12-28T19:11:34.431Z,99027.44
2022-12-28T19:14:02.928Z,99013.94
2022-12-28T19:16:31.783Z,99012.63
2022-12-28T19:19:00.311Z,99020.97
2022-12-28T20:22:11.861Z,98882.56
2022-12-28T21:12:41.147Z,98840.34
2022-12-28T21:21:25.776Z,98814.06
2022-12-28T21:26:56.515Z,98825.63
2022-12-28T21:29:26.191Z,98816.03
2022-12-28T21:31:54.376Z,98799.91
2022-12-28T21:34:22.579Z,98811.38
2022-12-28T21:36:51.528Z,98802.44
2022-12-28T21:39:19.371Z,98808.94
2022-12-28T21:41:49.877Z,98797.66
2022-12-28T21:44:19.908Z,98814.03
2022-12-28T21:46:47.694Z,98807.53
2022-12-28T21:49:15.279Z,98793.44
2022-12-28T21:51:42.869Z,98799.50
2022-12-28T21:54:13.619Z,98818.44
2022-12-28T21:56:42.240Z,98817.91
2022-12-28T21:59:11.079Z,98801.75
2022-12-28T22:01:57.004Z,98795.19
2022-12-28T22:04:42.559Z,98805.06
2022-12-28T22:07:11.679Z,98780.16
2022-12-28T22:09:58.481Z,98784.63
2022-12-28T22:12:36.135Z,98782.03
2022-12-28T22:15:30.576Z,98797.56
2022-12-28T22:17:59.980Z,98788.06
2022-12-28T22:20:28.333Z,98781.78
2022-12-28T22:22:56.862Z,98773.81
2022-12-28T22:25:26.171Z,98776.69
2022-12-28T22:27:53.775Z,98776.13
2022-12-28T22:30:21.432Z,98778.00
2022-12-28T22:32:49.020Z,98764.56
2022-12-28T22:35:18.634Z,98763.69
2022-12-28T22:37:46.350Z,98775.16
2022-12-28T22:40:14.409Z,98763.94
2022-12-28T22:42:44.453Z,98752.28
2022-12-28T22:45:12.953Z,98758.88
2022-12-28T22:47:41.076Z,98752.19
2022-12-28T22:50:11.076Z,98745.22
2022-12-28T22:52:38.608Z,98740.94
2022-12-28T22:55:06.878Z,98730.34
2022-12-28T22:57:34.876Z,98736.88
2022-12-28T23:00:04.359Z,98740.94
2022-12-28T23:02:32.033Z,98741.81
2022-12-28T23:04:59.859Z,98734.25
2022-12-28T23:07:27.461Z,98748.81
2022-12-28T23:09:54.978Z,98747.75
2022-12-28T23:12:22.558Z,98745.91
2022-12-28T23:15:07.965Z,98745.13
2022-12-28T23:17:37.060Z,98751.44
2022-12-28T23:20:22.423Z,98752.28
2022-12-28T23:23:07.018Z,98753.09
2022-12-28T23:25:52.166Z,98717.94
2022-12-28T23:28:19.677Z,98719.75
2022-12-28T23:30:49.006Z,98709.38
2022-12-28T23:33:18.645Z,98720.81
2022-12-28T23:35:46.302Z,98728.75
2022-12-28T23:38:13.807Z,98710.56
2022-12-28T23:40:42.037Z,98735.31
2022-12-28T23:43:09.620Z,98707.72
2022-12-28T23:45:37.352Z,98715.13
2022-12-28T23:48:05.631Z,98709.59
2022-12-28T23:50:34.582Z,98699.56
2022-12-28T23:53:02.097Z,98700.81
2022-12-28T23:55:29.900Z,98708.97
2022-12-28T23:57:57.446Z,98726.38
